createdAt,value
2019-04-01T00:00:18.683Z,2
2019-04-01T00:01:18.791Z,2
2019-04-01T00:02:19.070Z,2
2019-04-01T00:03:18.758Z,2
2019-04-01T00:04:18.679Z,2
2019-04-01T00:05:18.737Z,2
2019-04-01T00:06:18.754Z,2
2019-04-01T00:07:18.727Z,2
2019-04-01T00:08:18.850Z,2
2019-04-01T00:09:18.751Z,2
2019-04-01T00:10:18.698Z,2
2019-04-01T00:12:18.726Z,2
2019-04-01T00:13:18.769Z,2
2019-04-01T00:14:18.662Z,2
2019-04-01T00:15:18.823Z,1
2019-04-01T00:16:18.674Z,2
2019-04-01T00:17:18.699Z,2
2019-04-01T00:18:18.675Z,2
2019-04-01T00:19:18.980Z,2
2019-04-01T00:20:18.684Z,2
2019-04-01T00:21:18.687Z,2
2019-04-01T00:22:18.783Z,2
2019-04-01T00:23:18.687Z,2
2019-04-01T00:24:18.668Z,2
2019-04-01T00:25:18.664Z,2
2019-04-01T00:26:18.669Z,2
2019-04-01T00:27:18.726Z,2
2019-04-01T00:28:18.664Z,2
2019-04-01T00:29:18.671Z,2
2019-04-01T00:30:18.664Z,2
2019-04-01T00:31:18.667Z,2
2019-04-01T00:32:18.714Z,2
2019-04-01T00:33:18.718Z,2
2019-04-01T00:34:18.668Z,2
2019-04-01T00:35:18.665Z,2
2019-04-01T00:36:18.668Z,2
2019-04-01T00:37:18.663Z,2
2019-04-01T00:38:18.709Z,2
2019-04-01T00:39:18.670Z,2
2019-04-01T00:40:18.767Z,2
2019-04-01T00:41:18.666Z,2
2019-04-01T00:42:20.046Z,2
2019-04-01T00:43:18.687Z,2
2019-04-01T00:44:18.668Z,2
2019-04-01T00:45:18.663Z,2
2019-04-01T00:46:18.664Z,2
2019-04-01T00:47:18.685Z,2
2019-04-01T00:48:19.024Z,2
2019-04-01T00:49:18.686Z,2
2019-04-01T00:50:18.664Z,2
2019-04-01T00:51:18.701Z,2
2019-04-01T00:52:18.687Z,2
2019-04-01T00:53:18.865Z,2
2019-04-01T00:54:18.675Z,2
2019-04-01T00:55:18.694Z,2
2019-04-01T00:56:18.721Z,2
2019-04-01T00:57:18.669Z,2
2019-04-01T00:58:18.724Z,2
2019-04-01T00:59:18.664Z,2
2019-04-01T01:00:18.687Z,2
2019-04-01T01:01:18.680Z,2
2019-04-01T01:02:18.706Z,2
2019-04-01T01:03:18.714Z,2
2019-04-01T01:04:18.687Z,2
2019-04-01T01:05:18.666Z,2
2019-04-01T01:06:18.712Z,2
2019-04-01T01:07:18.711Z,2
2019-04-01T01:08:18.666Z,2
2019-04-01T01:09:18.662Z,2
2019-04-01T01:10:18.805Z,2
2019-04-01T01:11:19.030Z,2
2019-04-01T01:12:18.664Z,2
2019-04-01T01:13:18.671Z,2
2019-04-01T01:14:18.717Z,2
2019-04-01T01:15:18.737Z,2
2019-04-01T01:16:18.675Z,2
2019-04-01T01:17:18.676Z,2
2019-04-01T01:18:18.689Z,2
2019-04-01T01:19:18.699Z,2
2019-04-01T01:20:18.769Z,2
2019-04-01T01:21:18.667Z,2
2019-04-01T01:22:18.721Z,2
2019-04-01T01:23:18.980Z,2
2019-04-01T01:24:18.674Z,2
2019-04-01T01:25:18.792Z,2
2019-04-01T01:26:18.668Z,2
2019-04-01T01:27:18.736Z,2
2019-04-01T01:28:18.661Z,2
2019-04-01T01:29:18.667Z,2
2019-04-01T01:30:18.731Z,2
2019-04-01T01:31:18.706Z,2
2019-04-01T01:32:18.680Z,2
2019-04-01T01:33:18.746Z,2
2019-04-01T01:34:18.991Z,2
2019-04-01T01:35:18.755Z,2
2019-04-01T01:36:18.707Z,2
2019-04-01T01:37:18.660Z,2
2019-04-01T01:38:18.706Z,2
2019-04-01T01:39:18.658Z,2
2019-04-01T01:40:19.003Z,2
2019-04-01T01:41:18.707Z,2
2019-04-01T01:42:18.733Z,2
2019-04-01T01:43:18.661Z,2
2019-04-01T01:44:18.665Z,2
2019-04-01T01:45:18.663Z,2
2019-04-01T01:46:18.696Z,2
2019-04-01T01:47:18.707Z,2
2019-04-01T01:48:18.750Z,2
2019-04-01T01:49:18.729Z,2
2019-04-01T01:50:18.675Z,2
2019-04-01T01:51:18.719Z,2
2019-04-01T01:52:18.841Z,2
2019-04-01T01:53:18.700Z,2
2019-04-01T01:54:18.668Z,2
2019-04-01T01:55:18.674Z,2
2019-04-01T01:56:18.665Z,2
2019-04-01T01:57:18.732Z,2
2019-04-01T01:58:18.960Z,2
2019-04-01T01:59:18.673Z,2
2019-04-01T02:00:18.675Z,2
2019-04-01T02:01:18.675Z,2
2019-04-01T02:02:18.783Z,2
2019-04-01T02:03:18.690Z,2
2019-04-01T02:04:18.975Z,2
2019-04-01T02:05:18.676Z,2
2019-04-01T02:06:18.675Z,2
2019-04-01T02:07:18.716Z,2
2019-04-01T02:08:18.670Z,2
2019-04-01T02:09:18.674Z,2
2019-04-01T02:10:19.965Z,2
2019-04-01T02:11:18.672Z,2
2019-04-01T02:12:18.726Z,2
2019-04-01T02:13:20.183Z,2
2019-04-01T02:14:18.750Z,2
2019-04-01T02:15:18.690Z,2
2019-04-01T02:16:18.681Z,2
2019-04-01T02:17:18.722Z,2
2019-04-01T02:18:18.686Z,2
2019-04-01T02:19:18.718Z,2
2019-04-01T02:20:18.717Z,2
2019-04-01T02:21:18.734Z,2
2019-04-01T02:22:18.683Z,2
2019-04-01T02:23:18.692Z,2
2019-04-01T02:24:18.679Z,2
2019-04-01T02:25:18.702Z,2
2019-04-01T02:26:18.760Z,2
2019-04-01T02:27:18.675Z,2
2019-04-01T02:28:18.670Z,2
2019-04-01T02:29:18.694Z,2
2019-04-01T02:30:18.679Z,2
2019-04-01T02:31:18.731Z,2
2019-04-01T02:32:18.699Z,2
2019-04-01T02:33:18.967Z,2
2019-04-01T02:34:18.668Z,2
2019-04-01T02:35:18.671Z,2
2019-04-01T02:36:18.724Z,2
2019-04-01T02:37:18.695Z,2
2019-04-01T02:38:18.681Z,2
2019-04-01T02:39:19.005Z,2
2019-04-01T02:40:21.987Z,2
2019-04-01T02:41:18.745Z,2
2019-04-01T02:42:18.681Z,2
2019-04-01T02:43:18.695Z,2
2019-04-01T02:44:18.697Z,2
2019-04-01T02:45:18.693Z,2
2019-04-01T02:46:18.768Z,2
2019-04-01T02:47:18.847Z,2
2019-04-01T02:48:18.699Z,2
2019-04-01T02:49:18.707Z,2
2019-04-01T02:50:18.769Z,2
2019-04-01T02:51:18.680Z,2
2019-04-01T02:52:18.745Z,2
2019-04-01T02:53:18.678Z,2
2019-04-01T02:54:18.699Z,2
2019-04-01T02:56:18.729Z,2
2019-04-01T02:59:18.676Z,2
2019-04-01T03:00:18.718Z,2
2019-04-01T03:01:18.766Z,2
2019-04-01T03:02:18.672Z,2
2019-04-01T03:03:18.694Z,2
2019-04-01T03:04:18.715Z,2
2019-04-01T03:05:18.705Z,2
2019-04-01T03:06:18.737Z,2
2019-04-01T03:07:18.687Z,2
2019-04-01T03:08:18.734Z,2
2019-04-01T03:09:18.988Z,2
2019-04-01T03:10:18.690Z,2
2019-04-01T03:11:18.775Z,2
2019-04-01T03:12:18.673Z,3
2019-04-01T03:13:18.796Z,3
2019-04-01T03:14:18.707Z,2
2019-04-01T03:15:18.678Z,2
2019-04-01T03:16:18.762Z,2
2019-04-01T03:17:18.695Z,2
2019-04-01T03:18:18.702Z,2
2019-04-01T03:19:18.715Z,2
2019-04-01T03:20:18.739Z,2
2019-04-01T03:21:18.679Z,2
2019-04-01T03:22:18.717Z,2
2019-04-01T03:23:18.819Z,2
2019-04-01T03:24:18.681Z,2
2019-04-01T03:25:18.721Z,2
2019-04-01T03:26:18.718Z,2
2019-04-01T03:27:18.718Z,2
2019-04-01T03:28:18.737Z,2
2019-04-01T03:29:18.716Z,2
2019-04-01T03:30:18.677Z,2
2019-04-01T03:31:18.688Z,2
2019-04-01T03:32:18.726Z,2
2019-04-01T03:33:18.699Z,2
2019-04-01T03:34:18.727Z,2
2019-04-01T03:35:18.734Z,2
2019-04-01T03:36:18.990Z,2
2019-04-01T03:37:18.730Z,2
2019-04-01T03:38:18.697Z,2
2019-04-01T03:39:18.667Z,2
2019-04-01T03:40:18.736Z,2
2019-04-01T03:41:18.746Z,2
2019-04-01T03:42:18.725Z,2
2019-04-01T03:43:18.679Z,2
2019-04-01T03:44:18.685Z,2
2019-04-01T03:45:18.671Z,2
2019-04-01T03:46:18.723Z,2
2019-04-01T03:47:18.754Z,2
2019-04-01T03:48:18.673Z,2
2019-04-01T03:49:18.697Z,2
2019-04-01T03:50:18.678Z,2
2019-04-01T03:51:18.730Z,2
2019-04-01T03:52:18.685Z,2
2019-04-01T03:53:18.675Z,2
2019-04-01T03:54:18.671Z,2
2019-04-01T03:55:18.669Z,2
2019-04-01T03:56:18.723Z,2
2019-04-01T03:57:18.672Z,2
2019-04-01T03:58:18.713Z,2
2019-04-01T03:59:18.692Z,2
2019-04-01T04:00:18.725Z,2
2019-04-01T04:01:18.743Z,2
2019-04-01T04:02:18.700Z,2
2019-04-01T04:03:18.705Z,2
2019-04-01T04:04:18.686Z,2
2019-04-01T04:05:18.742Z,2
2019-04-01T04:06:18.730Z,2
2019-04-01T04:07:18.684Z,2
2019-04-01T04:08:18.701Z,2
2019-04-01T04:09:18.685Z,2
2019-04-01T04:10:18.736Z,2
2019-04-01T04:11:18.981Z,2
2019-04-01T04:12:18.684Z,2
2019-04-01T04:13:18.675Z,2
2019-04-01T04:14:18.738Z,2
2019-04-01T04:15:18.708Z,2
2019-04-01T04:16:18.684Z,2
2019-04-01T04:17:18.982Z,2
2019-04-01T04:18:18.699Z,2
2019-04-01T04:19:18.729Z,2
2019-04-01T04:20:18.671Z,2
2019-04-01T04:21:18.720Z,2
2019-04-01T04:22:18.681Z,2
2019-04-01T04:23:19.013Z,2
2019-04-01T04:24:18.752Z,2
2019-04-01T04:25:18.681Z,2
2019-04-01T04:26:18.684Z,2
2019-04-01T04:27:18.733Z,2
2019-04-01T04:28:18.674Z,2
2019-04-01T04:29:18.726Z,2
2019-04-01T04:30:18.701Z,2
2019-04-01T04:31:18.745Z,2
2019-04-01T04:32:18.677Z,2
2019-04-01T04:33:18.720Z,2
2019-04-01T04:34:18.726Z,2
2019-04-01T04:35:18.677Z,2
2019-04-01T04:36:19.124Z,2
2019-04-01T04:37:18.736Z,2
2019-04-01T04:38:18.756Z,2
2019-04-01T04:39:18.739Z,2
2019-04-01T04:40:18.969Z,2
2019-04-01T04:41:18.682Z,2
2019-04-01T04:42:18.844Z,2
2019-04-01T04:43:18.856Z,2
2019-04-01T04:44:18.724Z,2
2019-04-01T04:45:18.697Z,2
2019-04-01T04:46:21.057Z,2
2019-04-01T04:47:18.819Z,2
2019-04-01T04:48:18.690Z,2
2019-04-01T04:49:18.701Z,2
2019-04-01T04:50:18.696Z,2
2019-04-01T04:51:18.966Z,2
2019-04-01T04:52:18.839Z,2
2019-04-01T04:53:18.708Z,2
2019-04-01T04:54:18.695Z,2
2019-04-01T04:55:18.988Z,2
2019-04-01T04:56:18.717Z,2
2019-04-01T04:57:20.387Z,2
2019-04-01T04:58:18.713Z,2
2019-04-01T04:59:18.723Z,2
2019-04-01T05:00:18.669Z,3
2019-04-01T05:01:18.728Z,3
2019-04-01T05:02:18.669Z,2
2019-04-01T05:03:18.798Z,2
2019-04-01T05:04:18.799Z,2
2019-04-01T05:05:18.778Z,2
2019-04-01T05:06:18.667Z,2
2019-04-01T05:07:18.777Z,2
2019-04-01T05:08:18.979Z,2
2019-04-01T05:09:18.685Z,2
2019-04-01T05:10:18.739Z,2
2019-04-01T05:11:18.683Z,2
2019-04-01T05:12:18.694Z,2
2019-04-01T05:13:18.673Z,2
2019-04-01T05:14:18.672Z,2
2019-04-01T05:15:18.774Z,2
2019-04-01T05:16:18.784Z,2
2019-04-01T05:17:18.687Z,2
2019-04-01T05:18:18.661Z,2
2019-04-01T05:19:18.668Z,2
2019-04-01T05:20:18.696Z,2
2019-04-01T05:21:18.735Z,2
2019-04-01T05:22:18.692Z,2
2019-04-01T05:23:18.680Z,2
2019-04-01T05:24:18.670Z,2
2019-04-01T05:25:19.016Z,2
2019-04-01T05:26:18.762Z,2
2019-04-01T05:27:18.677Z,2
2019-04-01T05:28:18.666Z,2
2019-04-01T05:29:18.672Z,2
2019-04-01T05:30:18.669Z,3
2019-04-01T05:31:19.101Z,3
2019-04-01T05:32:18.669Z,3
2019-04-01T05:33:18.759Z,3
2019-04-01T05:34:18.682Z,2
2019-04-01T05:35:18.711Z,2
2019-04-01T05:36:18.718Z,2
2019-04-01T05:37:18.723Z,2
2019-04-01T05:38:18.693Z,2
2019-04-01T05:39:18.666Z,2
2019-04-01T05:42:18.719Z,2
2019-04-01T05:43:18.974Z,2
2019-04-01T05:44:18.678Z,2
2019-04-01T05:45:18.712Z,2
2019-04-01T05:46:18.748Z,2
2019-04-01T05:47:18.691Z,2
2019-04-01T05:48:18.672Z,2
2019-04-01T05:49:18.997Z,2
2019-04-01T05:50:18.674Z,6
2019-04-01T05:51:18.724Z,3
2019-04-01T05:52:18.859Z,6
2019-04-01T05:53:18.708Z,4
2019-04-01T05:54:18.751Z,2
2019-04-01T05:55:18.703Z,3
2019-04-01T05:56:18.673Z,2
2019-04-01T05:57:18.731Z,3
2019-04-01T05:58:18.687Z,3
2019-04-01T05:59:18.717Z,3
2019-04-01T06:00:20.773Z,3
2019-04-01T06:01:18.677Z,3
2019-04-01T06:02:18.822Z,4
2019-04-01T06:03:18.739Z,4
2019-04-01T06:04:19.244Z,3
2019-04-01T06:05:19.088Z,3
2019-04-01T06:06:18.712Z,3
2019-04-01T06:07:18.699Z,4
2019-04-01T06:08:18.661Z,4
2019-04-01T06:09:18.718Z,4
2019-04-01T06:10:18.699Z,2
2019-04-01T06:11:18.782Z,2
2019-04-01T06:12:18.668Z,2
2019-04-01T06:13:18.840Z,2
2019-04-01T06:14:18.772Z,2
2019-04-01T06:15:20.039Z,2
2019-04-01T06:16:18.690Z,3
2019-04-01T06:17:18.664Z,3
2019-04-01T06:18:18.751Z,3
2019-04-01T06:19:18.705Z,3
2019-04-01T06:20:18.669Z,3
2019-04-01T06:21:18.663Z,4
2019-04-01T06:22:18.696Z,3
2019-04-01T06:23:21.382Z,3
2019-04-01T06:24:18.763Z,3
2019-04-01T06:25:18.711Z,3
2019-04-01T06:26:18.662Z,3
2019-04-01T06:27:18.685Z,3
2019-04-01T06:28:18.731Z,2
2019-04-01T06:29:18.721Z,2
2019-04-01T06:30:18.755Z,2
2019-04-01T06:31:18.689Z,2
2019-04-01T06:32:18.696Z,2
2019-04-01T06:33:18.677Z,2
2019-04-01T06:34:18.757Z,2
2019-04-01T06:35:18.691Z,2
2019-04-01T06:36:18.700Z,2
2019-04-01T06:37:18.828Z,2
2019-04-01T06:38:18.668Z,2
2019-04-01T06:39:18.742Z,2
2019-04-01T06:40:18.733Z,2
2019-04-01T06:41:18.663Z,2
2019-04-01T06:42:18.692Z,2
2019-04-01T06:43:18.667Z,3
2019-04-01T06:44:18.670Z,3
2019-04-01T06:45:18.718Z,3
2019-04-01T06:46:18.751Z,4
2019-04-01T06:47:18.691Z,4
2019-04-01T06:48:18.997Z,4
2019-04-01T06:49:20.385Z,4
2019-04-01T06:50:18.739Z,3
2019-04-01T06:51:18.745Z,3
2019-04-01T06:52:18.756Z,2
2019-04-01T06:53:18.666Z,2
2019-04-01T06:54:18.667Z,2
2019-04-01T06:55:18.719Z,2
2019-04-01T06:56:18.772Z,3
2019-04-01T06:57:18.679Z,3
2019-04-01T06:58:18.731Z,2
2019-04-01T06:59:18.988Z,2
2019-04-01T07:00:18.703Z,2
2019-04-01T07:01:18.685Z,3
2019-04-01T07:02:18.676Z,3
2019-04-01T07:03:18.917Z,3
2019-04-01T07:04:18.672Z,3
2019-04-01T07:05:18.741Z,3
2019-04-01T07:06:18.670Z,3
2019-04-01T07:07:19.595Z,2
2019-04-01T07:08:18.677Z,2
2019-04-01T07:09:18.665Z,2
2019-04-01T07:10:19.044Z,2
2019-04-01T07:11:18.799Z,2
2019-04-01T07:12:18.676Z,4
2019-04-01T07:13:18.709Z,3
2019-04-01T07:14:18.680Z,3
2019-04-01T07:15:18.706Z,2
2019-04-01T07:16:19.084Z,2
2019-04-01T07:17:18.693Z,2
2019-04-01T07:18:18.687Z,2
2019-04-01T07:19:18.671Z,2
2019-04-01T07:20:18.709Z,2
2019-04-01T07:21:18.733Z,3
2019-04-01T07:22:18.993Z,2
2019-04-01T07:23:19.583Z,3
2019-04-01T07:24:18.776Z,2
2019-04-01T07:25:18.664Z,3
2019-04-01T07:26:18.803Z,3
2019-04-01T07:27:18.670Z,2
2019-04-01T07:28:18.893Z,2
2019-04-01T07:29:18.680Z,2
2019-04-01T07:30:18.673Z,2
2019-04-01T07:31:18.711Z,2
2019-04-01T07:32:18.687Z,2
2019-04-01T07:33:19.473Z,4
2019-04-01T07:34:20.118Z,4
2019-04-01T07:35:18.685Z,4
2019-04-01T07:36:18.751Z,3
2019-04-01T07:37:18.691Z,3
2019-04-01T07:38:18.685Z,3
2019-04-01T07:39:19.086Z,4
2019-04-01T07:40:18.684Z,3
2019-04-01T07:41:20.756Z,4
2019-04-01T07:42:18.694Z,4
2019-04-01T07:43:18.746Z,4
2019-04-01T07:44:18.789Z,5
2019-04-01T07:45:18.680Z,3
2019-04-01T07:46:18.763Z,3
2019-04-01T07:47:18.694Z,4
2019-04-01T07:48:18.895Z,4
2019-04-01T07:49:18.791Z,3
2019-04-01T07:50:18.982Z,3
2019-04-01T07:51:18.729Z,3
2019-04-01T07:52:18.671Z,3
2019-04-01T07:53:18.804Z,2
2019-04-01T07:54:18.835Z,2
2019-04-01T07:55:18.815Z,2
2019-04-01T07:56:18.698Z,2
2019-04-01T07:57:18.689Z,4
2019-04-01T07:58:18.668Z,4
2019-04-01T07:59:18.914Z,3
2019-04-01T08:00:18.748Z,2
2019-04-01T08:01:18.775Z,2
2019-04-01T08:02:18.670Z,2
2019-04-01T08:03:18.893Z,2
2019-04-01T08:04:18.718Z,2
2019-04-01T08:05:18.683Z,2
2019-04-01T08:06:18.797Z,2
2019-04-01T08:07:18.742Z,2
2019-04-01T08:08:18.685Z,2
2019-04-01T08:09:18.704Z,3
2019-04-01T08:10:18.857Z,2
2019-04-01T08:11:18.810Z,4
2019-04-01T08:12:18.970Z,4
2019-04-01T08:13:19.644Z,4
2019-04-01T08:14:19.128Z,4
2019-04-01T08:15:21.359Z,3
2019-04-01T08:16:18.664Z,2
2019-04-01T08:17:18.610Z,2
2019-04-01T08:18:18.530Z,2
2019-04-01T08:19:18.563Z,2
2019-04-01T08:20:18.517Z,2
2019-04-01T08:21:18.776Z,2
2019-04-01T08:22:18.587Z,2
2019-04-01T08:23:18.549Z,2
2019-04-01T08:24:18.609Z,2
2019-04-01T08:25:18.635Z,2
2019-04-01T08:26:18.633Z,2
2019-04-01T08:27:18.734Z,3
2019-04-01T08:29:29.423Z,2
2019-04-01T08:30:18.783Z,2
2019-04-01T08:31:18.840Z,3
2019-04-01T08:32:18.691Z,2
2019-04-01T08:33:18.888Z,2
2019-04-01T08:34:18.740Z,4
2019-04-01T08:35:18.819Z,4
2019-04-01T08:36:18.834Z,4
2019-04-01T08:37:18.702Z,3
2019-04-01T08:38:18.768Z,3
2019-04-01T08:39:18.807Z,4
2019-04-01T08:40:19.068Z,3
2019-04-01T08:41:18.802Z,3
2019-04-01T08:42:18.689Z,3
2019-04-01T08:43:18.896Z,3
2019-04-01T08:44:18.778Z,4
2019-04-01T08:45:18.689Z,4
2019-04-01T08:46:18.717Z,4
2019-04-01T08:47:18.685Z,3
2019-04-01T08:48:18.742Z,3
2019-04-01T08:49:18.715Z,3
2019-04-01T08:50:18.702Z,3
2019-04-01T08:51:18.689Z,3
2019-04-01T08:53:18.842Z,3
2019-04-01T08:54:18.724Z,3
2019-04-01T08:55:18.660Z,3
2019-04-01T08:56:18.816Z,3
2019-04-01T08:57:18.730Z,3
2019-04-01T08:58:18.841Z,4
2019-04-01T08:59:18.713Z,4
2019-04-01T09:00:18.668Z,4
2019-04-01T09:01:18.682Z,4
2019-04-01T09:02:18.780Z,4
2019-04-01T09:03:18.735Z,4
2019-04-01T09:04:18.880Z,5
2019-04-01T09:05:20.756Z,4
2019-04-01T09:06:18.706Z,4
2019-04-01T09:07:18.691Z,4
2019-04-01T09:08:18.668Z,4
2019-04-01T09:09:18.701Z,4
2019-04-01T09:10:18.735Z,4
2019-04-01T09:11:18.708Z,3
2019-04-01T09:12:18.763Z,3
2019-04-01T09:13:18.697Z,3
2019-04-01T09:14:18.691Z,3
2019-04-01T09:15:18.781Z,3
2019-04-01T09:16:18.769Z,3
2019-04-01T09:17:18.710Z,3
2019-04-01T09:18:18.674Z,2
2019-04-01T09:19:18.690Z,2
2019-04-01T09:20:18.685Z,2
2019-04-01T09:21:18.716Z,2
2019-04-01T09:22:18.698Z,2
2019-04-01T09:23:18.686Z,2
2019-04-01T09:24:18.684Z,2
2019-04-01T09:25:18.838Z,2
2019-04-01T09:26:19.018Z,2
2019-04-01T09:27:18.691Z,2
2019-04-01T09:28:18.691Z,2
2019-04-01T09:29:18.732Z,2
2019-04-01T09:30:18.943Z,2
2019-04-01T09:31:18.722Z,2
2019-04-01T09:32:19.148Z,2
2019-04-01T09:33:18.661Z,3
2019-04-01T09:34:18.725Z,2
2019-04-01T09:35:18.691Z,3
2019-04-01T09:36:18.713Z,3
2019-04-01T09:37:18.831Z,3
2019-04-01T09:38:18.688Z,3
2019-04-01T09:39:18.713Z,2
2019-04-01T09:40:18.669Z,3
2019-04-01T09:41:18.681Z,2
2019-04-01T09:42:19.002Z,4
2019-04-01T09:43:19.911Z,3
2019-04-01T09:44:18.799Z,3
2019-04-01T09:45:19.899Z,4
2019-04-01T09:46:18.664Z,3
2019-04-01T09:47:18.712Z,3
2019-04-01T09:48:18.662Z,3
2019-04-01T09:49:18.672Z,3
2019-04-01T09:50:18.708Z,3
2019-04-01T09:51:18.678Z,2
2019-04-01T09:52:23.510Z,4
2019-04-01T09:53:18.659Z,2
2019-04-01T09:54:18.685Z,2
2019-04-01T09:55:19.242Z,3
2019-04-01T09:56:18.713Z,2
2019-04-01T09:57:18.753Z,2
2019-04-01T09:58:18.723Z,2
2019-04-01T09:59:18.664Z,2
2019-04-01T10:00:18.754Z,2
2019-04-01T10:01:18.769Z,2
2019-04-01T10:02:31.109Z,2
2019-04-01T10:03:18.930Z,2
2019-04-01T10:04:18.705Z,2
2019-04-01T10:05:18.727Z,2
2019-04-01T10:06:18.781Z,2
2019-04-01T10:07:19.027Z,2
2019-04-01T10:08:18.670Z,2
2019-04-01T10:09:18.674Z,3
2019-04-01T10:10:18.705Z,3
2019-04-01T10:11:18.875Z,3
2019-04-01T10:12:18.676Z,3
2019-04-01T10:13:18.956Z,4
2019-04-01T10:14:18.738Z,4
2019-04-01T10:15:18.673Z,4
2019-04-01T10:16:19.521Z,4
2019-04-01T10:17:21.892Z,4
2019-04-01T10:18:18.723Z,3
2019-04-01T10:19:18.692Z,5
2019-04-01T10:20:18.716Z,6
2019-04-01T10:21:19.316Z,3
2019-04-01T10:22:18.870Z,2
2019-04-01T10:23:18.975Z,2
2019-04-01T10:24:18.692Z,2
2019-04-01T10:25:18.711Z,2
2019-04-01T10:26:18.688Z,2
2019-04-01T10:27:18.679Z,2
2019-04-01T10:28:18.737Z,2
2019-04-01T10:29:18.654Z,2
2019-04-01T10:30:18.658Z,2
2019-04-01T10:31:18.724Z,2
2019-04-01T10:32:18.656Z,2
2019-04-01T10:33:18.682Z,2
2019-04-01T10:34:18.683Z,2
2019-04-01T10:35:18.668Z,2
2019-04-01T10:36:18.740Z,2
2019-04-01T10:37:18.657Z,2
2019-04-01T10:38:18.673Z,3
2019-04-01T10:39:18.658Z,2
2019-04-01T10:40:18.654Z,2
2019-04-01T10:41:18.716Z,2
2019-04-01T10:42:18.678Z,2
2019-04-01T10:43:18.668Z,2
2019-04-01T10:44:18.681Z,2
2019-04-01T10:45:18.665Z,2
2019-04-01T10:46:18.762Z,2
2019-04-01T10:47:18.722Z,2
2019-04-01T10:48:18.750Z,2
2019-04-01T10:49:18.692Z,2
2019-04-01T10:50:18.764Z,2
2019-04-01T10:51:19.003Z,2
2019-04-01T10:52:18.762Z,2
2019-04-01T10:53:18.813Z,2
2019-04-01T10:54:18.727Z,2
2019-04-01T10:55:18.759Z,2
2019-04-01T10:56:19.450Z,4
2019-04-01T10:57:18.789Z,3
2019-04-01T10:58:18.735Z,3
2019-04-01T10:59:18.683Z,3
2019-04-01T11:00:25.146Z,3
2019-04-01T11:01:19.976Z,3
2019-04-01T11:02:18.874Z,4
2019-04-01T11:03:20.841Z,4
2019-04-01T11:04:18.845Z,4
2019-04-01T11:05:19.524Z,4
2019-04-01T11:06:18.680Z,2
2019-04-01T11:07:18.873Z,2
2019-04-01T11:08:18.910Z,3
2019-04-01T11:09:18.696Z,2
2019-04-01T11:10:18.711Z,2
2019-04-01T11:11:18.690Z,2
2019-04-01T11:12:18.669Z,2
2019-04-01T11:13:19.307Z,2
2019-04-01T11:14:18.671Z,2
2019-04-01T11:15:19.978Z,2
2019-04-01T11:16:18.723Z,2
2019-04-01T11:17:18.816Z,2
2019-04-01T11:18:18.904Z,2
2019-04-01T11:19:18.711Z,2
2019-04-01T11:20:18.657Z,2
2019-04-01T11:21:18.677Z,2
2019-04-01T11:22:18.745Z,2
2019-04-01T11:23:18.665Z,2
2019-04-01T11:24:18.677Z,3
2019-04-01T11:25:18.685Z,3
2019-04-01T11:26:18.691Z,2
2019-04-01T11:27:18.723Z,2
2019-04-01T11:28:18.735Z,2
2019-04-01T11:29:18.727Z,2
2019-04-01T11:30:18.723Z,2
2019-04-01T11:31:18.752Z,2
2019-04-01T11:32:18.725Z,2
2019-04-01T11:33:18.747Z,2
2019-04-01T11:34:19.349Z,3
2019-04-01T11:35:18.728Z,2
2019-04-01T11:36:18.737Z,2
2019-04-01T11:37:18.694Z,2
2019-04-01T11:38:18.735Z,3
2019-04-01T11:39:18.733Z,4
2019-04-01T11:40:19.080Z,4
2019-04-01T11:41:18.811Z,4
2019-04-01T11:42:19.944Z,4
2019-04-01T11:43:19.611Z,3
2019-04-01T11:44:18.768Z,2
2019-04-01T11:45:18.731Z,2
2019-04-01T11:46:18.724Z,2
2019-04-01T11:47:21.959Z,2
2019-04-01T11:48:18.719Z,2
2019-04-01T11:49:18.733Z,2
2019-04-01T11:50:18.788Z,2
2019-04-01T11:51:32.024Z,2
2019-04-01T11:52:18.998Z,2
2019-04-01T11:53:19.006Z,2
2019-04-01T11:54:18.688Z,2
2019-04-01T11:55:18.822Z,2
2019-04-01T11:56:18.766Z,2
2019-04-01T11:57:18.743Z,3
2019-04-01T11:58:18.669Z,3
2019-04-01T11:59:18.991Z,3
2019-04-01T12:00:18.684Z,3
2019-04-01T12:01:18.707Z,3
2019-04-01T12:02:18.836Z,2
2019-04-01T12:03:19.943Z,2
2019-04-01T12:04:18.822Z,3
2019-04-01T12:05:18.769Z,2
2019-04-01T12:06:18.659Z,2
2019-04-01T12:07:18.718Z,2
2019-04-01T12:08:18.746Z,2
2019-04-01T12:09:18.732Z,2
2019-04-01T12:10:18.663Z,2
2019-04-01T12:11:18.667Z,2
2019-04-01T12:12:23.973Z,2
2019-04-01T12:13:18.697Z,2
2019-04-01T12:14:18.665Z,2
2019-04-01T12:15:18.680Z,2
2019-04-01T12:16:18.716Z,2
2019-04-01T12:17:18.674Z,2
2019-04-01T12:18:18.696Z,3
2019-04-01T12:19:18.671Z,3
2019-04-01T12:20:18.652Z,2
2019-04-01T12:21:18.682Z,2
2019-04-01T12:22:19.944Z,2
2019-04-01T12:23:18.718Z,2
2019-04-01T12:24:18.702Z,2
2019-04-01T12:25:18.664Z,2
2019-04-01T12:26:18.662Z,2
2019-04-01T12:27:18.672Z,2
2019-04-01T12:28:18.989Z,2
2019-04-01T12:29:18.654Z,3
2019-04-01T12:30:18.655Z,3
2019-04-01T12:31:18.674Z,3
2019-04-01T12:32:18.676Z,2
2019-04-01T12:33:18.702Z,2
2019-04-01T12:34:18.735Z,2
2019-04-01T12:35:19.320Z,3
2019-04-01T12:36:19.287Z,2
2019-04-01T12:37:18.752Z,3
2019-04-01T12:40:18.769Z,2
2019-04-01T12:43:18.791Z,2
2019-04-01T12:44:18.693Z,2
2019-04-01T12:45:18.694Z,2
2019-04-01T12:46:18.666Z,2
2019-04-01T12:47:18.748Z,2
2019-04-01T12:48:18.834Z,2
2019-04-01T12:49:18.676Z,2
2019-04-01T12:50:18.681Z,2
2019-04-01T12:51:19.017Z,2
2019-04-01T12:52:18.771Z,2
2019-04-01T12:53:18.680Z,3
2019-04-01T12:54:18.721Z,3
2019-04-01T12:55:18.667Z,2
2019-04-01T12:56:18.672Z,2
2019-04-01T12:57:19.181Z,3
2019-04-01T12:58:18.749Z,3
2019-04-01T12:59:18.680Z,3
2019-04-01T13:00:18.673Z,2
2019-04-01T13:01:20.346Z,2
2019-04-01T13:02:20.296Z,2
2019-04-01T13:03:18.750Z,2
2019-04-01T13:04:18.679Z,2
2019-04-01T13:05:18.687Z,2
2019-04-01T13:06:19.136Z,2
2019-04-01T13:07:18.849Z,2
2019-04-01T13:08:18.805Z,2
2019-04-01T13:09:18.671Z,2
2019-04-01T13:10:20.225Z,2
2019-04-01T13:11:19.482Z,3
2019-04-01T13:12:18.672Z,3
2019-04-01T13:13:18.701Z,3
2019-04-01T13:14:18.674Z,3
2019-04-01T13:15:18.684Z,3
2019-04-01T13:16:18.763Z,3
2019-04-01T13:17:18.718Z,3
2019-04-01T13:18:18.967Z,2
2019-04-01T13:19:18.985Z,2
2019-04-01T13:20:18.692Z,2
2019-04-01T13:21:18.736Z,2
2019-04-01T13:22:18.692Z,2
2019-04-01T13:23:19.483Z,3
2019-04-01T13:24:18.685Z,3
2019-04-01T13:25:18.677Z,3
2019-04-01T13:26:18.735Z,3
2019-04-01T13:27:18.680Z,3
2019-04-01T13:28:18.674Z,3
2019-04-01T13:29:18.775Z,3
2019-04-01T13:30:18.707Z,2
2019-04-01T13:31:18.688Z,2
2019-04-01T13:32:20.150Z,2
2019-04-01T13:33:19.977Z,3
2019-04-01T13:34:20.344Z,3
2019-04-01T13:35:18.815Z,4
2019-04-01T13:36:18.682Z,2
2019-04-01T13:37:18.714Z,3
2019-04-01T13:38:19.257Z,3
2019-04-01T13:39:19.293Z,3
2019-04-01T13:40:21.370Z,4
2019-04-01T13:41:18.929Z,4
2019-04-01T13:42:25.038Z,5
2019-04-01T13:43:19.819Z,6
2019-04-01T13:44:36.702Z,9
2019-04-01T13:45:21.566Z,7
2019-04-01T13:46:21.814Z,8
2019-04-01T13:47:22.503Z,6
2019-04-01T13:48:22.180Z,7
2019-04-01T13:49:20.823Z,9
2019-04-01T13:50:19.924Z,6
2019-04-01T13:51:18.868Z,3
2019-04-01T13:52:18.933Z,2
2019-04-01T13:53:18.976Z,3
2019-04-01T13:54:18.907Z,3
2019-04-01T13:55:18.865Z,2
2019-04-01T13:56:18.879Z,2
2019-04-01T13:57:18.938Z,2
2019-04-01T13:58:18.952Z,2
2019-04-01T13:59:18.833Z,3
2019-04-01T14:00:20.270Z,3
2019-04-01T14:01:18.864Z,3
2019-04-01T14:02:18.784Z,3
2019-04-01T14:03:18.744Z,2
2019-04-01T14:04:18.688Z,2
2019-04-01T14:05:18.685Z,2
2019-04-01T14:06:18.680Z,2
2019-04-01T14:07:18.695Z,2
2019-04-01T14:08:18.725Z,2
2019-04-01T14:09:18.752Z,2
2019-04-01T14:10:18.669Z,2
2019-04-01T14:11:18.705Z,2
2019-04-01T14:12:18.680Z,2
2019-04-01T14:13:18.670Z,2
2019-04-01T14:14:18.863Z,2
2019-04-01T14:15:18.669Z,2
2019-04-01T14:16:18.659Z,2
2019-04-01T14:17:18.687Z,2
2019-04-01T14:18:18.816Z,3
2019-04-01T14:19:18.711Z,3
2019-04-01T14:20:18.687Z,3
2019-04-01T14:21:20.822Z,3
2019-04-01T14:22:20.257Z,3
2019-04-01T14:23:18.817Z,2
2019-04-01T14:24:18.806Z,2
2019-04-01T14:25:18.719Z,2
2019-04-01T14:26:18.679Z,3
2019-04-01T14:27:18.683Z,3
2019-04-01T14:28:18.686Z,2
2019-04-01T14:29:18.721Z,2
2019-04-01T14:30:18.723Z,2
2019-04-01T14:31:19.322Z,3
2019-04-01T14:32:18.676Z,3
2019-04-01T14:33:18.663Z,3
2019-04-01T14:34:23.249Z,2
2019-04-01T14:35:18.724Z,2
2019-04-01T14:36:18.696Z,2
2019-04-01T14:37:25.025Z,2
2019-04-01T14:38:18.719Z,2
2019-04-01T14:39:18.838Z,2
2019-04-01T14:40:18.779Z,2
2019-04-01T14:41:18.825Z,2
2019-04-01T14:42:18.679Z,2
2019-04-01T14:43:18.714Z,2
2019-04-01T14:44:18.772Z,2
2019-04-01T14:45:18.719Z,2
2019-04-01T14:46:18.765Z,2
2019-04-01T14:47:18.670Z,2
2019-04-01T14:48:18.689Z,2
2019-04-01T14:49:18.873Z,2
2019-04-01T14:50:18.679Z,2
2019-04-01T14:51:18.797Z,2
2019-04-01T14:52:31.701Z,2
2019-04-01T14:53:18.679Z,2
2019-04-01T14:54:20.630Z,2
2019-04-01T14:55:18.735Z,2
2019-04-01T14:56:18.737Z,2
2019-04-01T14:57:18.764Z,2
2019-04-01T14:58:18.685Z,2
2019-04-01T14:59:18.750Z,3